Time;durP1;ratioP1;P1;durP2;ratioP2;P2;SDS_P1;SDS_P2;PMS_P1;PMS_P2;Temp;Humidity;BMP_temperature;BMP_pressure;BME280_temperature;BME280_humidity;BME280_pressure;Samples;Min_cycle;Max_cycle;Signal;HPM_P1;HPM_P2
2021/01/07 00:00:57;;;;;;;13.87;7.67;;;2.90;89.80;;;;;;6219430;23;20058;-85
2021/01/07 00:03:23;;;;;;;13.33;7.40;;;2.80;89.60;;;;;;6246527;23;20027;-84
2021/01/07 00:05:49;;;;;;;15.03;7.57;;;2.90;90.00;;;;;;6219659;23;20058;-85
2021/01/07 00:08:14;;;;;;;14.23;6.80;;;2.80;89.70;;;;;;6219507;23;20430;-85
2021/01/07 00:10:42;;;;;;;16.10;6.90;;;2.90;89.90;;;;;;6219595;23;20012;-85
2021/01/07 00:13:08;;;;;;;16.17;8.30;;;2.80;89.30;;;;;;6219406;23;20011;-85
2021/01/07 00:15:34;;;;;;;14.43;6.87;;;2.80;89.50;;;;;;6219390;23;20079;-85
2021/01/07 00:18:00;;;;;;;15.23;7.40;;;2.90;89.50;;;;;;6246258;23;20380;-85
2021/01/07 00:20:25;;;;;;;16.70;7.83;;;2.90;89.40;;;;;;6246361;23;20007;-85
2021/01/07 00:22:51;;;;;;;15.27;7.33;;;2.90;89.60;;;;;;6219340;23;20010;-85
2021/01/07 00:25:16;;;;;;;14.63;7.80;;;2.90;89.40;;;;;;6246036;22;20015;-85
2021/01/07 00:27:42;;;;;;;16.27;7.27;;;2.90;89.20;;;;;;6219330;23;20058;-85
2021/01/07 00:30:08;;;;;;;16.07;7.10;;;2.90;89.60;;;;;;6219321;23;20031;-85
2021/01/07 00:32:34;;;;;;;13.07;6.77;;;2.90;89.30;;;;;;6219302;23;20054;-86
2021/01/07 00:35:00;;;;;;;16.43;7.67;;;2.80;89.10;;;;;;6246435;22;20324;-85
2021/01/07 00:37:26;;;;;;;13.87;6.90;;;2.90;89.20;;;;;;6246301;23;20007;-84
2021/01/07 00:39:51;;;;;;;13.27;7.07;;;2.90;89.20;;;;;;6219351;23;20004;-85
2021/01/07 00:42:17;;;;;;;17.83;7.67;;;2.90;89.00;;;;;;6219605;23;20376;-85
2021/01/07 00:44:44;;;;;;;12.63;7.23;;;2.90;88.90;;;;;;6219160;23;20039;-85
2021/01/07 00:47:10;;;;;;;14.63;6.63;;;2.90;89.00;;;;;;6246045;23;20454;-85
2021/01/07 00:49:35;;;;;;;21.17;7.67;;;2.90;89.00;;;;;;6219135;23;20004;-85
2021/01/07 00:52:01;;;;;;;15.27;7.47;;;2.90;88.90;;;;;;6245983;23;20020;-85
2021/01/07 00:54:29;;;;;;;13.20;7.03;;;2.90;89.10;;;;;;6246111;22;20011;-85
2021/01/07 00:56:54;;;;;;;12.90;7.40;;;2.90;89.50;;;;;;6218915;23;20007;-85
2021/01/07 00:59:20;;;;;;;15.23;7.20;;;2.90;88.50;;;;;;6245749;23;20008;-85
2021/01/07 01:01:49;;;;;;;15.53;6.90;;;2.90;88.70;;;;;;6219071;23;20008;-85
2021/01/07 01:04:15;;;;;;;14.32;7.43;;;2.90;88.70;;;;;;6245632;22;20011;-85
2021/01/07 01:06:42;;;;;;;17.07;8.10;;;2.90;88.40;;;;;;6218895;23;20396;-85
2021/01/07 01:09:09;;;;;;;15.80;7.67;;;2.90;88.70;;;;;;6218821;23;20102;-85
2021/01/07 01:11:53;;;;;;;16.83;7.57;;;2.90;88.70;;;;;;6245969;23;20435;-85
2021/01/07 01:14:20;;;;;;;14.93;7.37;;;2.90;88.90;;;;;;6218872;23;20346;-85
2021/01/07 01:16:50;;;;;;;13.33;7.10;;;2.90;89.10;;;;;;6219154;23;20050;-85
2021/01/07 01:19:16;;;;;;;14.97;7.57;;;2.90;89.00;;;;;;6219055;23;20062;-85
2021/01/07 01:21:42;;;;;;;16.93;7.20;;;2.90;89.00;;;;;;6219033;23;20014;-85
2021/01/07 01:24:09;;;;;;;16.00;8.07;;;2.90;89.30;;;;;;6245584;22;20079;-85
2021/01/07 01:26:35;;;;;;;15.87;8.27;;;2.90;89.00;;;;;;6245559;23;20004;-85
2021/01/07 01:29:00;;;;;;;17.30;8.27;;;2.90;89.20;;;;;;6245474;23;20027;-85
2021/01/07 01:31:26;;;;;;;15.73;8.23;;;2.90;89.40;;;;;;6245623;23;20000;-85
2021/01/07 01:33:52;;;;;;;15.83;8.13;;;3.00;89.30;;;;;;6218461;22;20346;-85
2021/01/07 01:36:24;;;;;;;17.80;8.47;;;3.00;89.30;;;;;;6218512;23;20027;-85
2021/01/07 01:38:50;;;;;;;21.83;8.90;;;3.00;89.30;;;;;;6218573;23;20054;-85
2021/01/07 01:41:15;;;;;;;16.17;8.83;;;3.10;89.20;;;;;;6245720;23;20008;-85
2021/01/07 01:43:41;;;;;;;17.00;8.67;;;3.00;89.20;;;;;;6218806;23;20402;-85
2021/01/07 01:46:07;;;;;;;21.83;9.63;;;3.10;89.30;;;;;;6245227;22;20435;-85
2021/01/07 01:48:33;;;;;;;18.77;9.07;;;3.00;89.40;;;;;;6253455;23;20000;-86
2021/01/07 01:50:59;;;;;;;16.27;8.63;;;3.10;89.30;;;;;;6259484;23;20000;-84
2021/01/07 01:53:25;;;;;;;19.43;9.40;;;3.00;89.30;;;;;;6260426;23;20016;-85
2021/01/07 01:55:52;;;;;;;19.50;10.07;;;3.00;89.10;;;;;;6246855;22;20450;-85
2021/01/07 01:58:17;;;;;;;17.27;8.77;;;3.00;89.30;;;;;;6245800;23;20334;-85
2021/01/07 02:00:43;;;;;;;17.27;8.80;;;2.90;89.90;;;;;;6218755;23;20082;-85
2021/01/07 02:03:10;;;;;;;18.60;8.87;;;2.80;90.00;;;;;;6245650;23;20024;-85
2021/01/07 02:05:37;;;;;;;16.27;8.40;;;2.90;89.70;;;;;;6218346;23;20015;-85
2021/01/07 02:08:04;;;;;;;16.40;8.50;;;2.90;89.80;;;;;;6218508;23;20004;-85
2021/01/07 02:10:32;;;;;;;18.30;8.77;;;3.00;89.40;;;;;;6245162;23;20012;-85
2021/01/07 02:12:59;;;;;;;18.53;8.63;;;3.00;89.40;;;;;;6245266;23;20004;-85
2021/01/07 02:15:24;;;;;;;18.50;8.67;;;2.80;89.60;;;;;;6245039;22;20000;-86
2021/01/07 02:17:50;;;;;;;16.50;8.50;;;2.80;89.80;;;;;;6218474;23;20530;-85
2021/01/07 02:20:23;;;;;;;17.17;9.10;;;2.90;89.70;;;;;;6245343;23;20327;-85
2021/01/07 02:22:55;;;;;;;17.40;9.07;;;2.80;90.00;;;;;;6218414;23;20065;-85
2021/01/07 02:25:22;;;;;;;21.57;9.17;;;2.90;90.00;;;;;;6218410;23;20390;-85
2021/01/07 02:27:48;;;;;;;17.07;8.63;;;2.90;89.30;;;;;;6218261;23;20004;-85
2021/01/07 02:30:14;;;;;;;17.50;8.47;;;2.90;89.80;;;;;;6244980;23;20000;-85
2021/01/07 02:32:40;;;;;;;16.67;9.13;;;3.00;89.80;;;;;;6245288;23;20454;-85
2021/01/07 02:35:08;;;;;;;20.10;10.80;;;3.00;89.60;;;;;;6244796;22;20000;-85
2021/01/07 02:37:35;;;;;;;22.73;9.90;;;3.00;89.80;;;;;;6246057;23;19999;-85
2021/01/07 02:40:01;;;;;;;19.17;9.83;;;3.00;89.60;;;;;;6220065;23;20031;-85
2021/01/07 02:42:27;;;;;;;25.13;10.60;;;2.90;89.60;;;;;;6247531;23;20000;-85
2021/01/07 02:44:53;;;;;;;23.20;10.70;;;2.80;90.00;;;;;;6245067;22;20010;-85
2021/01/07 02:47:18;;;;;;;20.47;9.80;;;2.80;90.00;;;;;;6246923;23;20072;-85
2021/01/07 02:49:44;;;;;;;23.27;10.00;;;2.80;90.00;;;;;;6246990;23;20000;-85
2021/01/07 02:52:10;;;;;;;23.27;10.03;;;2.80;90.10;;;;;;6220028;23;20435;-85
2021/01/07 02:54:35;;;;;;;19.23;9.67;;;2.80;90.00;;;;;;6247148;22;20083;-86
2021/01/07 02:57:02;;;;;;;19.30;9.57;;;2.80;90.00;;;;;;6220301;23;20000;-85
2021/01/07 02:59:28;;;;;;;20.87;9.87;;;2.90;90.20;;;;;;6246944;23;20335;-85
2021/01/07 03:01:54;;;;;;;18.53;9.63;;;2.90;89.80;;;;;;6220060;23;20012;-85
2021/01/07 03:04:20;;;;;;;18.77;10.43;;;2.80;89.80;;;;;;6246888;22;19996;-85
2021/01/07 03:06:46;;;;;;;19.33;10.00;;;2.80;89.80;;;;;;6246758;23;20000;-85
2021/01/07 03:09:12;;;;;;;20.10;9.47;;;2.80;90.00;;;;;;6244440;23;20000;-85
2021/01/07 03:11:37;;;;;;;19.70;10.10;;;2.80;90.00;;;;;;6245385;23;19992;-85
2021/01/07 03:14:03;;;;;;;20.80;10.30;;;2.80;90.10;;;;;;6246799;22;20098;-85
2021/01/07 03:16:29;;;;;;;20.50;10.40;;;2.80;90.20;;;;;;6247126;23;20000;-85
2021/01/07 03:18:54;;;;;;;18.63;10.27;;;2.80;90.10;;;;;;6219912;23;20323;-85
2021/01/07 03:21:20;;;;;;;23.43;10.33;;;2.80;90.30;;;;;;6246685;23;20074;-85
2021/01/07 03:23:46;;;;;;;19.70;10.23;;;2.80;90.30;;;;;;6246936;22;20031;-86
2021/01/07 03:26:11;;;;;;;20.13;10.17;;;2.70;90.10;;;;;;6247203;23;20024;-85
2021/01/07 03:28:37;;;;;;;19.43;10.23;;;2.70;90.50;;;;;;6245185;23;20092;-86
2021/01/07 03:31:03;;;;;;;20.37;10.80;;;2.80;90.40;;;;;;6246645;23;20007;-86
2021/01/07 03:33:29;;;;;;;24.33;10.47;;;2.80;90.20;;;;;;6245033;23;20430;-86
2021/01/07 03:35:55;;;;;;;20.30;10.50;;;2.80;90.40;;;;;;6219723;23;20054;-86
2021/01/07 03:38:20;;;;;;;19.27;10.00;;;2.80;90.30;;;;;;6245282;22;20004;-86
2021/01/07 03:40:46;;;;;;;21.63;10.63;;;2.80;90.20;;;;;;6245243;22;20012;-85
2021/01/07 03:43:11;;;;;;;21.77;10.40;;;2.80;90.20;;;;;;6246686;23;20244;-86
2021/01/07 03:45:37;;;;;;;20.27;10.70;;;2.80;90.40;;;;;;6246628;22;20000;-86
2021/01/07 03:48:03;;;;;;;22.13;10.83;;;2.70;90.40;;;;;;6219665;23;20343;-85
2021/01/07 03:50:29;;;;;;;23.43;10.93;;;2.70;90.50;;;;;;6246387;23;20000;-85
2021/01/07 03:52:54;;;;;;;20.73;10.80;;;2.80;90.30;;;;;;6246770;23;20007;-86
2021/01/07 03:55:20;;;;;;;20.73;10.93;;;2.70;90.30;;;;;;6219653;23;20039;-86
2021/01/07 03:57:45;;;;;;;20.97;11.03;;;2.70;90.50;;;;;;6219918;23;20058;-86
2021/01/07 04:00:12;;;;;;;20.83;11.03;;;2.70;90.50;;;;;;6246945;23;20007;-85
2021/01/07 04:02:37;;;;;;;18.93;10.37;;;2.60;90.70;;;;;;6220067;23;20004;-86
2021/01/07 04:05:04;;;;;;;23.83;11.73;;;2.70;90.80;;;;;;6219516;23;20070;-86
2021/01/07 04:07:30;;;;;;;23.80;10.87;;;2.70;90.60;;;;;;6219786;23;20004;-86
2021/01/07 04:09:55;;;;;;;25.60;11.43;;;2.70;90.70;;;;;;6246545;23;20003;-86
2021/01/07 04:12:21;;;;;;;19.20;10.40;;;2.70;90.60;;;;;;6244748;22;20001;-86
2021/01/07 04:14:47;;;;;;;21.43;10.67;;;2.70;90.60;;;;;;6246421;22;20001;-85
2021/01/07 04:17:12;;;;;;;22.30;10.77;;;2.80;90.40;;;;;;6244807;22;20010;-86
2021/01/07 04:19:38;;;;;;;20.40;10.13;;;2.70;90.50;;;;;;6246473;23;20004;-86
2021/01/07 04:22:03;;;;;;;19.70;10.87;;;2.70;90.50;;;;;;6244662;23;20008;-86
2021/01/07 04:24:29;;;;;;;23.47;11.90;;;2.80;90.50;;;;;;6246091;22;20431;-85
2021/01/07 04:26:55;;;;;;;21.27;11.07;;;2.80;90.50;;;;;;6219596;23;20008;-86
2021/01/07 04:29:20;;;;;;;21.30;11.03;;;2.80;90.40;;;;;;6244614;23;20094;-86
2021/01/07 04:31:46;;;;;;;21.53;11.40;;;2.70;90.60;;;;;;6246132;23;20004;-85
2021/01/07 04:34:12;;;;;;;21.43;10.80;;;2.80;90.40;;;;;;6219004;23;20004;-86
2021/01/07 04:36:37;;;;;;;22.00;10.90;;;2.80;90.60;;;;;;6245000;22;20007;-86
2021/01/07 04:39:03;;;;;;;22.00;11.23;;;2.90;90.30;;;;;;6219379;23;20011;-85
2021/01/07 04:41:29;;;;;;;19.97;10.67;;;2.80;90.60;;;;;;6246124;23;19997;-86
2021/01/07 04:43:56;;;;;;;24.50;12.17;;;2.70;90.90;;;;;;6244471;22;20050;-86
2021/01/07 04:46:22;;;;;;;22.17;10.97;;;2.80;90.60;;;;;;6218905;23;20458;-86
2021/01/07 04:48:48;;;;;;;22.90;11.43;;;2.70;90.80;;;;;;6246012;23;20001;-86
2021/01/07 04:51:14;;;;;;;19.73;10.93;;;2.80;90.70;;;;;;6218931;23;20339;-85
2021/01/07 04:53:40;;;;;;;22.73;11.33;;;2.70;90.90;;;;;;6219099;23;20007;-86
2021/01/07 04:56:06;;;;;;;26.67;12.47;;;2.70;91.00;;;;;;6245959;22;20081;-86
2021/01/07 04:58:32;;;;;;;22.30;12.00;;;2.70;91.20;;;;;;6219230;23;20004;-85
2021/01/07 05:00:57;;;;;;;23.57;12.40;;;2.70;91.30;;;;;;6245812;23;20013;-85
2021/01/07 05:03:24;;;;;;;23.63;12.90;;;2.70;91.20;;;;;;6219232;23;20449;-86
2021/01/07 05:05:51;;;;;;;27.13;12.70;;;2.70;91.10;;;;;;6245664;22;20007;-85
2021/01/07 05:08:20;;;;;;;25.63;12.50;;;2.70;91.30;;;;;;6244834;22;20492;-86
2021/01/07 05:10:47;;;;;;;21.73;12.63;;;2.80;91.10;;;;;;6218905;23;20447;-86
2021/01/07 05:13:20;;;;;;;23.33;12.57;;;2.80;91.10;;;;;;6218907;23;20050;-86
2021/01/07 05:15:46;;;;;;;24.00;13.07;;;2.80;91.10;;;;;;6246006;22;20046;-85
2021/01/07 05:18:12;;;;;;;23.53;12.83;;;2.80;91.00;;;;;;6219025;23;20007;-85
2021/01/07 05:20:38;;;;;;;24.27;12.93;;;2.70;91.20;;;;;;6245976;23;20435;-86
2021/01/07 05:23:04;;;;;;;26.23;13.63;;;2.70;91.30;;;;;;6245791;23;20509;-86
2021/01/07 05:25:30;;;;;;;29.07;14.17;;;2.70;91.30;;;;;;6218958;23;20015;-86
2021/01/07 05:28:03;;;;;;;26.47;13.57;;;2.70;91.30;;;;;;6245154;23;20007;-86
2021/01/07 05:30:31;;;;;;;24.03;12.80;;;2.70;91.20;;;;;;6217749;23;20391;-86
2021/01/07 05:33:05;;;;;;;26.13;13.50;;;2.60;91.70;;;;;;6245321;23;20011;-86
2021/01/07 05:35:31;;;;;;;29.00;13.80;;;2.70;91.60;;;;;;6218440;23;20531;-86
2021/01/07 05:38:08;;;;;;;25.30;13.43;;;2.70;91.40;;;;;;6245326;23;20000;-86
2021/01/07 05:40:35;;;;;;;26.90;13.67;;;2.60;91.60;;;;;;6217382;23;20047;-86
2021/01/07 05:43:07;;;;;;;27.10;13.80;;;2.60;91.60;;;;;;6218304;23;20004;-85
2021/01/07 05:45:40;;;;;;;26.47;13.77;;;2.60;91.70;;;;;;6245318;22;20285;-85
2021/01/07 05:48:06;;;;;;;27.90;14.03;;;2.60;91.80;;;;;;6218355;23;20320;-85
2021/01/07 05:50:37;;;;;;;27.17;14.33;;;2.60;91.60;;;;;;6217969;23;20036;-86
2021/01/07 05:53:03;;;;;;;28.73;14.70;;;2.60;91.70;;;;;;6243793;23;20083;-86
2021/01/07 05:55:29;;;;;;;29.47;14.83;;;2.70;91.70;;;;;;6218704;23;20000;-86
2021/01/07 05:58:00;;;;;;;33.30;15.67;;;2.60;91.80;;;;;;6218497;23;20000;-86
2021/01/07 06:00:32;;;;;;;37.97;16.40;;;2.70;91.90;;;;;;6244927;23;20004;-86
2021/01/07 06:02:59;;;;;;;32.73;15.77;;;2.70;91.70;;;;;;6218553;23;20008;-86
2021/01/07 06:05:25;;;;;;;33.23;16.50;;;2.70;92.00;;;;;;6219260;23;20008;-86
2021/01/07 06:07:54;;;;;;;41.27;20.57;;;2.70;92.00;;;;;;6218394;23;20031;-86
2021/01/07 06:10:21;;;;;;;38.50;18.67;;;2.70;92.00;;;;;;6242714;22;20054;-86
2021/01/07 06:12:47;;;;;;;34.43;17.47;;;2.70;92.00;;;;;;6217378;23;20040;-87
2021/01/07 06:15:16;;;;;;;40.00;18.10;;;2.80;92.00;;;;;;6218060;23;20385;-87
2021/01/07 06:17:42;;;;;;;32.45;16.85;;;2.70;92.10;;;;;;6245070;23;20008;-86
2021/01/07 06:20:14;;;;;;;34.17;16.37;;;2.60;92.00;;;;;;6217698;23;20001;-86
2021/01/07 06:23:25;;;;;;;35.93;16.30;;;2.60;92.20;;;;;;6244590;23;20087;-85
2021/01/07 06:26:28;;;;;;;32.83;15.80;;;2.60;92.20;;;;;;6216493;23;20010;-86
2021/01/07 06:28:57;;;;;;;31.27;14.90;;;2.70;92.20;;;;;;6192287;23;20004;-86
2021/01/07 06:31:37;;;;;;;26.53;13.70;;;2.60;92.00;;;;;;6245462;23;20004;-86
2021/01/07 06:34:06;;;;;;;28.50;13.75;;;2.60;92.20;;;;;;6218817;22;20004;-87
2021/01/07 06:36:36;;;;;;;28.80;13.23;;;2.60;92.00;;;;;;6219492;23;20028;-86
2021/01/07 06:39:03;;;;;;;25.00;12.80;;;2.50;92.10;;;;;;6243885;22;20000;-86
2021/01/07 06:41:29;;;;;;;26.97;13.37;;;2.50;91.90;;;;;;6218732;23;20013;-86
2021/01/07 06:43:56;;;;;;;27.03;13.17;;;2.50;92.40;;;;;;6218381;22;20004;-86
2021/01/07 06:46:44;;;;;;;27.80;13.03;;;2.50;92.20;;;;;;6218372;23;20008;-86
2021/01/07 06:49:36;;;;;;;20.47;11.00;;;2.50;92.20;;;;;;6217628;23;20450;-86
2021/01/07 06:52:04;;;;;;;19.40;9.93;;;2.60;91.80;;;;;;6214074;23;20005;-86
2021/01/07 06:54:52;;;;;;;19.40;9.73;;;2.50;91.30;;;;;;6219134;23;20000;-86
2021/01/07 06:57:17;;;;;;;18.87;9.83;;;2.50;91.20;;;;;;6223288;23;20000;-86
2021/01/07 06:59:57;;;;;;;21.40;9.77;;;2.50;91.00;;;;;;6221403;23;20312;-86
2021/01/07 07:02:24;;;;;;;23.70;9.87;;;2.50;91.30;;;;;;6218318;23;20011;-86
2021/01/07 07:05:25;;;;;;;18.03;9.67;;;2.50;91.20;;;;;;6264134;22;20047;-85
2021/01/07 07:07:57;;;;;;;20.87;10.50;;;2.50;91.30;;;;;;6225131;23;20004;-86
2021/01/07 07:10:23;;;;;;;30.23;12.50;;;2.40;91.30;;;;;;6243948;23;20036;-85
2021/01/07 07:12:50;;;;;;;21.03;11.13;;;2.40;91.50;;;;;;6243979;22;20007;-86
2021/01/07 07:15:17;;;;;;;25.13;11.53;;;2.50;91.60;;;;;;6218354;23;20003;-85
2021/01/07 07:17:45;;;;;;;21.13;10.53;;;2.50;91.60;;;;;;6245334;23;20023;-86
2021/01/07 07:20:12;;;;;;;22.73;11.10;;;2.60;91.60;;;;;;6217671;23;20335;-85
2021/01/07 07:22:45;;;;;;;22.40;11.37;;;2.50;91.30;;;;;;6218042;23;20000;-85
2021/01/07 07:25:28;;;;;;;21.03;10.73;;;2.60;91.20;;;;;;6220567;23;20012;-86
2021/01/07 07:27:58;;;;;;;22.53;11.30;;;2.60;91.20;;;;;;6220507;23;20366;-86
2021/01/07 07:30:24;;;;;;;24.40;10.83;;;2.60;91.40;;;;;;6220236;23;20004;-85
2021/01/07 07:32:50;;;;;;;24.03;10.97;;;2.60;91.20;;;;;;6247371;23;19996;-85
2021/01/07 07:35:27;;;;;;;20.87;10.57;;;2.60;91.20;;;;;;6258275;22;20028;-85
2021/01/07 07:37:53;;;;;;;20.17;10.90;;;2.70;91.40;;;;;;6244268;23;20004;-85
2021/01/07 07:40:34;;;;;;;18.33;9.90;;;2.60;91.00;;;;;;6243769;23;20008;-85
2021/01/07 07:43:00;;;;;;;19.17;9.57;;;2.60;91.10;;;;;;6244389;23;20031;-85
2021/01/07 07:45:32;;;;;;;20.40;10.60;;;2.70;91.20;;;;;;6244284;23;20004;-85
2021/01/07 07:47:59;;;;;;;19.77;10.70;;;2.80;91.20;;;;;;6269915;23;20031;-86
2021/01/07 07:50:30;;;;;;;21.43;10.37;;;2.70;91.20;;;;;;6261588;22;20012;-86
2021/01/07 07:53:11;;;;;;;20.40;10.93;;;2.80;91.10;;;;;;6254901;23;20007;-86
2021/01/07 07:55:42;;;;;;;22.30;10.83;;;2.80;91.10;;;;;;6224896;23;20012;-86
2021/01/07 07:58:12;;;;;;;23.17;10.27;;;2.80;91.20;;;;;;6219792;23;20008;-86
2021/01/07 08:00:39;;;;;;;21.53;10.97;;;2.80;91.10;;;;;;6230218;23;20214;-86
2021/01/07 08:03:06;;;;;;;21.97;10.87;;;2.80;91.10;;;;;;6252541;23;19997;-86
2021/01/07 08:05:33;;;;;;;20.70;10.77;;;2.80;91.00;;;;;;6252309;22;20003;-85
2021/01/07 08:07:59;;;;;;;20.37;9.70;;;2.80;91.20;;;;;;6253787;23;20070;-85
2021/01/07 08:10:26;;;;;;;20.33;10.50;;;2.80;91.20;;;;;;6253143;22;20083;-86
2021/01/07 08:12:53;;;;;;;20.17;10.90;;;2.90;91.30;;;;;;6231129;23;19984;-85
2021/01/07 08:15:31;;;;;;;19.47;10.20;;;2.90;91.30;;;;;;6234942;23;20458;-86
2021/01/07 08:18:20;;;;;;;23.57;10.97;;;2.90;91.40;;;;;;6234131;23;20000;-85
2021/01/07 08:20:46;;;;;;;22.95;10.98;;;2.90;91.10;;;;;;6232188;22;20059;-85
2021/01/07 08:23:13;;;;;;;18.03;9.50;;;2.90;91.30;;;;;;6253873;23;20000;-85
2021/01/07 08:25:40;;;;;;;21.90;10.83;;;2.90;91.30;;;;;;6229028;23;20052;-86
2021/01/07 08:28:27;;;;;;;22.60;11.13;;;2.80;91.40;;;;;;6229772;23;20004;-85
2021/01/07 08:31:04;;;;;;;22.00;10.87;;;2.90;91.30;;;;;;6256273;23;20008;-86
2021/01/07 08:33:31;;;;;;;22.27;11.43;;;2.80;91.30;;;;;;6230332;23;20000;-85
2021/01/07 08:36:07;;;;;;;21.87;10.80;;;2.80;91.60;;;;;;6237514;23;20111;-85
2021/01/07 08:38:33;;;;;;;21.30;11.43;;;2.80;91.70;;;;;;6235944;23;20431;-85
2021/01/07 08:41:24;;;;;;;23.83;12.50;;;2.80;91.50;;;;;;6261642;23;20011;-85
2021/01/07 08:43:52;;;;;;;23.03;11.73;;;2.80;91.50;;;;;;6235935;22;20000;-86
2021/01/07 08:46:22;;;;;;;22.23;11.67;;;2.70;91.60;;;;;;6234447;23;20004;-85
2021/01/07 08:48:58;;;;;;;21.60;11.73;;;2.70;91.60;;;;;;6229040;23;20046;-88
2021/01/07 08:51:24;;;;;;;23.57;12.43;;;2.80;91.60;;;;;;6257109;23;20059;-85
2021/01/07 08:53:59;;;;;;;21.10;11.57;;;2.70;91.50;;;;;;6230088;22;20007;-86
2021/01/07 08:56:35;;;;;;;21.93;12.07;;;2.80;91.70;;;;;;6230017;23;20000;-85
2021/01/07 08:59:26;;;;;;;20.57;11.83;;;2.80;91.80;;;;;;6229163;23;20000;-85
2021/01/07 09:01:57;;;;;;;19.43;10.80;;;2.70;91.60;;;;;;6254247;23;20000;-86
2021/01/07 09:04:31;;;;;;;20.97;11.63;;;2.60;91.50;;;;;;6229328;23;20000;-84
2021/01/07 09:07:08;;;;;;;19.03;11.43;;;2.70;91.70;;;;;;6229940;23;20011;-85
2021/01/07 09:09:45;;;;;;;20.87;11.80;;;2.70;91.60;;;;;;6228684;23;20007;-88
2021/01/07 09:12:31;;;;;;;23.07;12.63;;;2.70;91.80;;;;;;6254792;23;20343;-85
2021/01/07 09:15:11;;;;;;;19.77;11.30;;;2.70;91.90;;;;;;6255789;22;19996;-85
2021/01/07 09:17:56;;;;;;;19.75;12.10;;;2.70;91.80;;;;;;6229180;23;20001;-85
2021/01/07 09:20:29;;;;;;;21.23;11.73;;;2.70;91.70;;;;;;6228173;23;20004;-85
2021/01/07 09:23:04;;;;;;;20.07;11.43;;;2.60;91.80;;;;;;6254743;23;20008;-85
2021/01/07 09:25:30;;;;;;;19.70;10.80;;;2.60;91.80;;;;;;6255984;22;20008;-84
2021/01/07 09:27:57;;;;;;;20.80;11.47;;;2.60;91.70;;;;;;6228355;23;20011;-85
2021/01/07 09:30:24;;;;;;;22.50;11.47;;;2.50;91.70;;;;;;6255811;23;20020;-86
2021/01/07 09:32:49;;;;;;;20.10;11.47;;;2.60;92.10;;;;;;6255399;22;20002;-85
2021/01/07 09:35:15;;;;;;;20.23;10.60;;;2.60;91.80;;;;;;6229395;23;20007;-86
2021/01/07 09:37:41;;;;;;;21.23;11.40;;;2.70;92.00;;;;;;6254512;23;20004;-86
2021/01/07 09:40:07;;;;;;;21.90;11.87;;;2.70;91.70;;;;;;6229140;23;20443;-87
2021/01/07 09:42:33;;;;;;;19.90;11.03;;;2.70;91.90;;;;;;6229033;23;20004;-85
2021/01/07 09:45:00;;;;;;;18.63;11.03;;;2.80;92.00;;;;;;6229855;23;20011;-87
2021/01/07 09:47:26;;;;;;;19.63;11.30;;;2.70;91.80;;;;;;6231962;23;20004;-85
2021/01/07 09:49:52;;;;;;;19.93;11.37;;;2.70;91.90;;;;;;6253731;23;20000;-85
2021/01/07 09:52:18;;;;;;;22.80;12.40;;;2.80;91.90;;;;;;6243837;23;20390;-85
2021/01/07 09:54:43;;;;;;;21.27;11.27;;;2.80;91.90;;;;;;6218424;23;20008;-85
2021/01/07 09:57:10;;;;;;;19.70;11.27;;;2.80;91.80;;;;;;6218584;23;20000;-85
2021/01/07 09:59:35;;;;;;;17.77;11.23;;;2.80;91.80;;;;;;6218494;23;20062;-85
2021/01/07 10:02:07;;;;;;;20.87;11.60;;;2.80;91.90;;;;;;6218698;23;20012;-85
2021/01/07 10:04:33;;;;;;;17.67;10.60;;;2.70;91.80;;;;;;6218217;23;20004;-85
2021/01/07 10:07:00;;;;;;;18.90;11.17;;;2.80;91.80;;;;;;6218571;23;20031;-85
2021/01/07 10:09:25;;;;;;;18.17;10.57;;;2.80;91.60;;;;;;6245104;23;20000;-86
2021/01/07 10:11:56;;;;;;;18.73;10.83;;;2.80;91.80;;;;;;6243759;23;20010;-85
2021/01/07 10:14:23;;;;;;;18.20;10.60;;;2.70;92.00;;;;;;6218366;23;20011;-85
2021/01/07 10:16:55;;;;;;;18.23;10.40;;;2.80;92.00;;;;;;6218280;23;20113;-86
2021/01/07 10:19:21;;;;;;;18.30;9.70;;;2.80;92.00;;;;;;6217246;23;20059;-86
2021/01/07 10:21:53;;;;;;;15.53;9.50;;;2.90;91.90;;;;;;6244630;23;20000;-86
2021/01/07 10:24:19;;;;;;;15.87;9.57;;;2.90;91.80;;;;;;6217570;23;20035;-86
2021/01/07 10:26:44;;;;;;;15.60;9.57;;;3.00;92.00;;;;;;6217737;23;20089;-86
2021/01/07 10:29:11;;;;;;;16.03;9.47;;;2.90;91.70;;;;;;6216902;23;19997;-86
2021/01/07 10:31:37;;;;;;;15.80;8.53;;;2.90;91.90;;;;;;6217806;23;20355;-86
2021/01/07 10:34:04;;;;;;;24.97;13.37;;;2.80;91.70;;;;;;6218005;22;20000;-86
2021/01/07 10:36:30;;;;;;;31.23;16.20;;;2.80;92.00;;;;;;6217765;23;20023;-85
2021/01/07 10:38:58;;;;;;;20.27;10.53;;;2.90;92.00;;;;;;6217020;23;20028;-85
2021/01/07 10:41:29;;;;;;;15.73;8.93;;;2.90;91.60;;;;;;6217639;23;20084;-86
2021/01/07 10:44:00;;;;;;;15.53;8.87;;;3.00;91.90;;;;;;6217713;22;20008;-85
2021/01/07 10:46:27;;;;;;;15.77;8.47;;;3.00;91.70;;;;;;6217772;23;20031;-86
2021/01/07 10:48:53;;;;;;;14.57;7.83;;;2.90;91.70;;;;;;6217274;23;20019;-86
2021/01/07 10:51:19;;;;;;;19.13;10.10;;;2.90;91.80;;;;;;6217433;23;20059;-85
2021/01/07 10:53:57;;;;;;;17.87;9.07;;;2.90;91.80;;;;;;6242891;22;20000;-86
2021/01/07 10:56:55;;;;;;;18.97;9.23;;;3.00;91.90;;;;;;6218306;23;20001;-86
2021/01/07 10:59:33;;;;;;;16.90;9.07;;;3.00;91.70;;;;;;6219051;23;20027;-86
2021/01/07 11:02:28;;;;;;;17.27;9.30;;;2.90;91.50;;;;;;6219656;23;20015;-86
2021/01/07 11:05:12;;;;;;;19.17;9.57;;;3.00;91.60;;;;;;6219595;23;20053;-86
2021/01/07 11:08:16;;;;;;;16.80;9.60;;;3.10;91.60;;;;;;6219710;23;20000;-86
2021/01/07 11:10:53;;;;;;;15.97;8.83;;;3.10;91.90;;;;;;6218670;23;20004;-86
2021/01/07 11:13:35;;;;;;;15.17;8.87;;;3.10;91.50;;;;;;6219483;23;20086;-86
2021/01/07 11:16:02;;;;;;;16.20;8.60;;;3.10;91.20;;;;;;6246343;22;20027;-86
2021/01/07 11:18:30;;;;;;;17.23;9.50;;;3.20;91.30;;;;;;6246225;23;20038;-86
2021/01/07 11:21:04;;;;;;;16.97;9.47;;;3.20;91.30;;;;;;6245877;23;20008;-86
2021/01/07 11:23:31;;;;;;;16.87;8.63;;;3.20;91.50;;;;;;6246182;23;20011;-86
2021/01/07 11:25:56;;;;;;;22.27;9.67;;;3.20;91.40;;;;;;6292337;22;20042;-81
2021/01/07 11:28:22;;;;;;;16.80;8.83;;;3.20;91.60;;;;;;6283335;22;19999;-81
2021/01/07 11:30:48;;;;;;;16.63;8.70;;;3.30;91.60;;;;;;6282269;22;20003;-81
2021/01/07 11:33:16;;;;;;;14.37;8.27;;;3.20;91.20;;;;;;6311276;22;20003;-81
2021/01/07 11:35:46;;;;;;;15.37;8.13;;;3.30;91.30;;;;;;6291357;22;20003;-82
2021/01/07 11:38:48;;;;;;;17.10;8.53;;;3.30;91.10;;;;;;6281038;22;20006;-81
2021/01/07 11:41:38;;;;;;;14.07;7.63;;;3.30;91.30;;;;;;6281209;22;20008;-82
2021/01/07 11:44:57;;;;;;;16.30;8.87;;;3.30;91.30;;;;;;6282090;22;20011;-81
2021/01/07 11:47:30;;;;;;;15.27;8.37;;;3.20;91.40;;;;;;6127557;23;20073;-82
2021/01/07 11:49:57;;;;;;;18.50;9.80;;;3.20;91.60;;;;;;6227872;22;20530;-81
2021/01/07 11:52:23;;;;;;;18.23;9.07;;;3.20;91.90;;;;;;6280137;22;20320;-82
2021/01/07 11:54:52;;;;;;;18.77;10.53;;;3.20;91.80;;;;;;6280044;22;20162;-81
2021/01/07 11:57:19;;;;;;;18.07;10.13;;;3.20;92.00;;;;;;6279980;22;19996;-81
2021/01/07 11:59:45;;;;;;;17.90;10.07;;;3.20;92.20;;;;;;6279273;22;20000;-81
2021/01/07 12:02:11;;;;;;;17.60;9.93;;;3.10;91.80;;;;;;6280104;22;20010;-81
2021/01/07 12:04:38;;;;;;;18.53;9.70;;;3.20;92.30;;;;;;6280284;22;20008;-82
2021/01/07 12:07:23;;;;;;;18.03;9.37;;;3.20;92.20;;;;;;6280159;22;20465;-81
2021/01/07 12:09:49;;;;;;;19.37;10.17;;;3.20;92.30;;;;;;6277254;22;20079;-79
2021/01/07 12:12:15;;;;;;;18.00;9.90;;;3.20;91.90;;;;;;6277836;22;19996;-79
2021/01/07 12:14:52;;;;;;;19.40;10.57;;;3.20;92.10;;;;;;6276952;22;20011;-79
2021/01/07 12:17:18;;;;;;;19.17;10.63;;;3.20;92.00;;;;;;6277016;22;19999;-81
2021/01/07 12:19:44;;;;;;;18.83;10.10;;;3.20;92.20;;;;;;6276400;22;20334;-82
2021/01/07 12:22:15;;;;;;;18.60;10.40;;;3.20;92.00;;;;;;6277035;22;20078;-81
2021/01/07 12:24:43;;;;;;;19.47;10.07;;;3.20;92.00;;;;;;6276917;22;20342;-80
2021/01/07 12:27:10;;;;;;;18.83;10.70;;;3.20;92.20;;;;;;6277178;22;20004;-80
2021/01/07 12:29:40;;;;;;;21.57;11.50;;;3.30;92.30;;;;;;6249103;22;20018;-81
2021/01/07 12:32:33;;;;;;;18.33;10.00;;;3.20;92.00;;;;;;6249270;22;20007;-81
2021/01/07 12:35:32;;;;;;;16.70;9.73;;;3.20;92.20;;;;;;6277374;22;19996;-82
2021/01/07 12:38:25;;;;;;;17.63;9.45;;;3.20;92.20;;;;;;6249351;22;19999;-81
2021/01/07 12:41:01;;;;;;;17.10;9.80;;;3.20;92.10;;;;;;6249527;22;20090;-80
2021/01/07 12:43:32;;;;;;;17.17;10.00;;;3.20;92.20;;;;;;6249252;22;20343;-81
2021/01/07 12:46:03;;;;;;;19.27;10.10;;;3.20;92.30;;;;;;6276882;22;19996;-81
2021/01/07 12:48:30;;;;;;;19.27;9.87;;;3.20;92.40;;;;;;6277117;22;20003;-80
2021/01/07 12:50:58;;;;;;;17.57;9.23;;;3.30;92.50;;;;;;6276067;22;20517;-81
2021/01/07 12:53:24;;;;;;;18.00;9.47;;;3.30;92.40;;;;;;6276598;22;20026;-80